createdAt,value
2019-05-16T00:00:58.766Z,9.73
2019-05-16T00:03:28.009Z,9.23
2019-05-16T00:05:58.259Z,8.27
2019-05-16T00:08:25.139Z,8.87
2019-05-16T00:10:52.750Z,7.53
2019-05-16T00:13:20.280Z,7.67
2019-05-16T00:15:48.165Z,8.80
2019-05-16T00:18:17.831Z,8.13
2019-05-16T00:20:45.670Z,8.90
2019-05-16T00:23:13.229Z,8.40
2019-05-16T00:25:40.804Z,9.23
2019-05-16T00:28:08.937Z,8.90
2019-05-16T00:30:38.958Z,8.57
2019-05-16T00:33:08.294Z,8.73
2019-05-16T00:35:35.416Z,8.77
2019-05-16T00:38:03.042Z,9.47
2019-05-16T00:40:30.570Z,9.50
2019-05-16T00:42:58.901Z,9.43
2019-05-16T00:45:29.176Z,11.07
2019-05-16T00:47:58.294Z,10.13
2019-05-16T00:50:25.473Z,9.57
2019-05-16T00:52:53.045Z,10.70
2019-05-16T00:55:20.597Z,9.63
2019-05-16T00:57:49.453Z,11.63
2019-05-16T01:00:21.255Z,10.87
2019-05-16T01:02:48.926Z,9.83
2019-05-16T01:05:18.927Z,12.13
2019-05-16T01:07:47.884Z,8.93
2019-05-16T01:10:15.280Z,12.13
2019-05-16T01:12:42.842Z,10.07
2019-05-16T01:15:10.461Z,10.70
2019-05-16T01:17:39.093Z,9.70
2019-05-16T01:20:08.514Z,10.57
2019-05-16T01:22:38.559Z,9.07
2019-05-16T01:25:05.913Z,13.13
2019-05-16T01:27:33.453Z,11.23
2019-05-16T01:30:01.051Z,12.03
2019-05-16T01:32:29.159Z,9.90
2019-05-16T01:34:58.915Z,9.53
2019-05-16T01:37:27.869Z,12.37
2019-05-16T01:39:58.593Z,10.77
2019-05-16T01:42:27.857Z,14.73
2019-05-16T01:44:57.694Z,12.50
2019-05-16T01:47:24.758Z,11.30
2019-05-16T01:49:52.334Z,17.60
2019-05-16T01:52:19.869Z,13.33
2019-05-16T01:54:48.110Z,10.20
2019-05-16T01:57:17.925Z,11.73
2019-05-16T01:59:45.141Z,9.90
2019-05-16T02:02:12.738Z,12.57
2019-05-16T02:04:40.280Z,12.93
2019-05-16T02:07:08.551Z,15.77
2019-05-16T02:09:38.252Z,11.50
2019-05-16T02:12:08.200Z,12.77
2019-05-16T02:14:35.031Z,11.27
2019-05-16T02:17:02.582Z,12.83
2019-05-16T02:19:30.173Z,10.53
2019-05-16T02:21:59.627Z,10.27
2019-05-16T02:24:28.440Z,13.43
2019-05-16T02:26:58.791Z,13.33
2019-05-16T02:29:25.648Z,13.97
2019-05-16T02:31:53.189Z,13.33
2019-05-16T02:34:21.708Z,14.67
2019-05-16T02:37:10.203Z,12.40
2019-05-16T02:39:21.117Z,12.93
2019-05-16T02:41:51.812Z,12.73
2019-05-16T02:44:24.095Z,12.23
2019-05-16T02:46:47.156Z,15.33
2019-05-16T02:49:14.688Z,14.30
2019-05-16T02:51:42.291Z,11.07
2019-05-16T02:54:11.046Z,14.23
2019-05-16T02:56:41.442Z,12.80
2019-05-16T02:59:11.675Z,10.50
2019-05-16T03:01:40.664Z,11.07
2019-05-16T03:04:07.063Z,10.80
2019-05-16T03:06:35.700Z,14.80
2019-05-16T03:09:05.634Z,13.10
2019-05-16T03:11:33.852Z,12.13
2019-05-16T03:14:03.753Z,12.23
2019-05-16T03:16:32.852Z,16.40
2019-05-16T03:19:02.454Z,12.50
2019-05-16T03:21:32.715Z,11.57
2019-05-16T03:24:00.966Z,13.93
2019-05-16T03:26:31.522Z,11.63
2019-05-16T03:29:00.948Z,16.30
2019-05-16T03:31:27.834Z,12.27
2019-05-16T03:33:59.874Z,12.30
2019-05-16T03:36:25.784Z,15.03
2019-05-16T03:38:53.471Z,15.67
2019-05-16T03:41:21.509Z,11.40
2019-05-16T03:43:50.748Z,10.77
2019-05-16T03:46:21.451Z,11.83
2019-05-16T03:48:51.542Z,11.53
2019-05-16T03:51:17.381Z,10.47
2019-05-16T03:53:45.008Z,14.27
2019-05-16T03:56:12.576Z,16.90
2019-05-16T03:58:41.583Z,13.67
2019-05-16T04:01:11.165Z,12.73
2019-05-16T04:03:41.307Z,12.13
2019-05-16T04:06:11.552Z,11.97
2019-05-16T04:08:40.999Z,15.80
2019-05-16T04:11:07.250Z,12.27
2019-05-16T04:13:34.855Z,12.30
2019-05-16T04:16:02.386Z,11.20
2019-05-16T04:18:31.860Z,12.90
2019-05-16T04:21:01.035Z,14.57
2019-05-16T04:23:31.474Z,15.40
2019-05-16T04:26:00.667Z,13.60
2019-05-16T04:28:27.392Z,9.83
2019-05-16T04:30:54.932Z,17.07
2019-05-16T04:33:22.809Z,14.57
2019-05-16T04:35:52.653Z,17.97
2019-05-16T04:38:31.610Z,15.17
2019-05-16T04:40:51.746Z,14.50
2019-05-16T04:43:21.577Z,17.00
2019-05-16T04:45:51.683Z,12.90
2019-05-16T04:48:17.450Z,14.33
2019-05-16T04:50:45.035Z,14.97
2019-05-16T04:53:12.627Z,11.27
2019-05-16T04:55:42.066Z,12.67
2019-05-16T04:58:10.630Z,12.43
2019-05-16T05:00:41.824Z,13.00
2019-05-16T05:03:07.646Z,14.50
2019-05-16T05:05:35.210Z,11.80
2019-05-16T05:08:03.163Z,12.80
2019-05-16T05:10:31.366Z,10.37
2019-05-16T05:13:01.465Z,11.53
2019-05-16T05:15:30.561Z,10.73
2019-05-16T05:18:00.438Z,13.63
2019-05-16T05:20:27.082Z,12.43
2019-05-16T05:22:54.653Z,12.17
2019-05-16T05:25:22.127Z,9.73
2019-05-16T05:27:50.123Z,14.30
2019-05-16T05:30:19.831Z,13.33
2019-05-16T05:32:47.324Z,13.83
2019-05-16T05:35:14.965Z,11.53
2019-05-16T05:37:42.714Z,11.30
2019-05-16T05:40:10.920Z,9.10
2019-05-16T05:42:41.676Z,10.63
2019-05-16T05:45:11.205Z,9.27
2019-05-16T05:47:40.276Z,9.43
2019-05-16T05:50:10.900Z,9.83
2019-05-16T05:52:40.844Z,9.63
2019-05-16T05:55:10.357Z,10.97
2019-05-16T05:57:40.071Z,10.40
2019-05-16T06:00:09.939Z,10.90
2019-05-16T06:02:39.991Z,13.97
2019-05-16T06:05:07.001Z,7.97
2019-05-16T06:07:34.646Z,10.20
2019-05-16T06:10:02.338Z,8.00
2019-05-16T06:12:30.481Z,8.60
2019-05-16T06:15:06.059Z,9.57
2019-05-16T06:17:27.659Z,9.43
2019-05-16T06:19:55.190Z,8.27
2019-05-16T06:22:23.077Z,9.50
2019-05-16T06:24:50.673Z,9.20
2019-05-16T06:27:20.665Z,8.27
2019-05-16T06:29:49.598Z,8.90
2019-05-16T06:32:16.983Z,7.67
2019-05-16T06:34:44.730Z,8.60
2019-05-16T06:37:12.382Z,10.67
2019-05-16T06:39:45.098Z,10.37
2019-05-16T06:42:09.883Z,12.63
2019-05-16T06:44:39.977Z,7.27
2019-05-16T06:47:17.050Z,9.57
2019-05-16T06:49:36.685Z,9.70
2019-05-16T06:52:04.258Z,13.07
2019-05-16T06:54:32.033Z,11.20
2019-05-16T06:57:00.125Z,8.70
2019-05-16T06:59:29.766Z,9.77
2019-05-16T07:01:57.306Z,11.83
2019-05-16T07:04:24.875Z,13.03
2019-05-16T07:06:58.941Z,11.53
2019-05-16T07:09:21.996Z,8.97
2019-05-16T07:11:50.429Z,12.63
2019-05-16T07:14:22.516Z,48.60
2019-05-16T07:16:49.553Z,15.43
2019-05-16T07:19:16.890Z,10.00
2019-05-16T07:21:44.489Z,9.30
2019-05-16T07:24:12.062Z,8.77
2019-05-16T07:26:40.491Z,10.07
2019-05-16T07:29:10.800Z,11.83
2019-05-16T07:31:37.864Z,10.53
2019-05-16T07:34:05.450Z,9.67
2019-05-16T07:36:33.010Z,10.87
2019-05-16T07:39:00.623Z,8.33
2019-05-16T07:41:30.899Z,7.80
2019-05-16T07:43:57.522Z,8.70
2019-05-16T07:46:25.327Z,8.73
2019-05-16T07:48:52.895Z,8.93
2019-05-16T07:51:20.664Z,8.17
2019-05-16T07:53:50.553Z,11.20
2019-05-16T07:56:20.282Z,8.87
2019-05-16T07:58:47.300Z,9.70
2019-05-16T08:01:14.889Z,14.13
2019-05-16T08:03:44.192Z,11.87
2019-05-16T08:06:11.826Z,8.27
2019-05-16T08:08:40.382Z,10.20
2019-05-16T08:11:08.046Z,11.27
2019-05-16T08:13:35.637Z,13.77
2019-05-16T08:16:03.239Z,14.13
2019-05-16T08:18:31.012Z,12.77
2019-05-16T08:21:00.798Z,13.33
2019-05-16T08:23:30.460Z,12.07
2019-05-16T08:25:57.510Z,10.10
2019-05-16T08:28:25.123Z,11.00
2019-05-16T08:30:53.250Z,11.33
2019-05-16T08:33:22.088Z,10.80
2019-05-16T08:35:51.582Z,10.30
2019-05-16T08:38:21.437Z,16.03
2019-05-16T08:43:21.406Z,10.87
2019-05-16T08:45:47.508Z,10.90
2019-05-16T08:48:15.250Z,10.23
2019-05-16T08:50:50.324Z,8.67
2019-05-16T08:53:14.959Z,8.97
2019-05-16T08:55:43.312Z,8.03
2019-05-16T08:58:13.575Z,11.07
2019-05-16T09:00:41.930Z,8.13
2019-05-16T09:03:12.368Z,9.50
2019-05-16T09:05:43.623Z,9.77
2019-05-16T09:08:08.627Z,13.73
2019-05-16T09:10:35.524Z,12.97
2019-05-16T09:10:51.629Z,10.20
2019-05-16T09:13:07.181Z,13.70
2019-05-16T09:15:38.754Z,15.37
2019-05-16T09:18:07.262Z,8.53
2019-05-16T09:20:33.775Z,11.97
2019-05-16T09:23:01.338Z,7.97
2019-05-16T09:25:28.989Z,14.13
2019-05-16T09:27:56.998Z,12.40
2019-05-16T09:30:27.375Z,13.57
2019-05-16T09:32:54.186Z,10.13
2019-05-16T09:35:21.822Z,8.10
2019-05-16T09:37:49.372Z,9.17
2019-05-16T09:40:18.538Z,10.40
2019-05-16T09:42:47.412Z,12.90
2019-05-16T09:45:17.043Z,10.53
2019-05-16T09:47:48.205Z,9.00
2019-05-16T09:50:17.239Z,35.73
2019-05-16T09:52:44.350Z,10.43
2019-05-16T09:55:12.282Z,10.07
2019-05-16T09:57:39.901Z,11.10
2019-05-16T10:00:13.644Z,9.73
2019-05-16T10:02:41.727Z,11.90
2019-05-16T10:05:13.444Z,9.53
2019-05-16T10:07:39.250Z,10.27
2019-05-16T10:10:07.048Z,10.83
2019-05-16T10:12:36.954Z,8.60
2019-05-16T10:15:07.279Z,9.07
2019-05-16T10:17:36.784Z,10.80
2019-05-16T10:20:03.769Z,9.43
2019-05-16T10:22:31.413Z,11.13
2019-05-16T10:24:59.106Z,9.17
2019-05-16T10:27:26.686Z,17.27
2019-05-16T10:30:00.600Z,11.00
2019-05-16T10:32:23.804Z,8.77
2019-05-16T10:34:51.352Z,9.67
2019-05-16T10:37:19.010Z,12.37
2019-05-16T10:39:47.051Z,11.30
2019-05-16T10:42:24.915Z,9.63
2019-05-16T10:44:44.154Z,10.40
2019-05-16T10:47:11.811Z,8.47
2019-05-16T10:49:41.873Z,7.90
2019-05-16T10:52:09.036Z,8.70
2019-05-16T10:54:37.083Z,13.40
2019-05-16T10:57:04.939Z,8.27
2019-05-16T11:02:02.988Z,8.80
2019-05-16T11:04:52.716Z,6.90
2019-05-16T11:07:00.025Z,8.57
2019-05-16T11:09:27.616Z,8.83
2019-05-16T11:11:57.114Z,7.43
2019-05-16T11:14:27.959Z,7.90
2019-05-16T11:16:54.155Z,9.00
2019-05-16T11:19:24.715Z,7.30
2019-05-16T11:21:51.699Z,7.70
2019-05-16T11:24:19.257Z,7.67
2019-05-16T11:26:47.399Z,7.10
2019-05-16T11:29:16.466Z,8.33
2019-05-16T11:31:46.637Z,5.67
2019-05-16T11:34:13.690Z,6.93
2019-05-16T11:36:41.263Z,7.23
2019-05-16T11:39:08.962Z,7.80
2019-05-16T11:41:36.499Z,6.10
2019-05-16T11:44:06.425Z,7.63
2019-05-16T11:46:33.514Z,5.27
2019-05-16T11:49:01.126Z,5.30
2019-05-16T11:51:28.758Z,5.63
2019-05-16T11:53:59.905Z,4.50
2019-05-16T11:56:25.843Z,4.37
2019-05-16T11:58:53.420Z,4.70
2019-05-16T12:01:21.141Z,7.13
2019-05-16T12:03:48.706Z,5.87
2019-05-16T12:06:17.089Z,5.40
2019-05-16T12:08:46.767Z,4.37
2019-05-16T12:11:14.229Z,4.80
2019-05-16T12:13:41.849Z,5.90
2019-05-16T12:16:09.593Z,6.07
2019-05-16T12:18:37.461Z,4.90
2019-05-16T12:21:07.323Z,6.07
2019-05-16T12:23:37.311Z,7.90
2019-05-16T12:26:10.110Z,5.27
2019-05-16T12:28:37.725Z,5.17
2019-05-16T12:31:07.154Z,5.93
2019-05-16T12:33:37.524Z,6.27
2019-05-16T12:36:07.070Z,8.53
2019-05-16T12:38:34.067Z,6.20
2019-05-16T12:41:01.655Z,5.37
2019-05-16T12:43:44.929Z,6.70
2019-05-16T12:45:58.623Z,6.50
2019-05-16T12:48:26.198Z,7.33
2019-05-16T12:50:53.807Z,7.60
2019-05-16T12:53:23.614Z,6.40
2019-05-16T12:55:50.890Z,6.10
2019-05-16T12:58:24.875Z,9.13
2019-05-16T13:00:54.059Z,6.40
2019-05-16T13:03:17.582Z,9.30
2019-05-16T13:05:47.552Z,8.17
2019-05-16T13:08:17.229Z,10.40
2019-05-16T13:10:46.804Z,7.93
2019-05-16T13:13:13.488Z,6.63
2019-05-16T13:15:42.367Z,6.27
2019-05-16T13:18:10.190Z,8.57
2019-05-16T13:20:41.163Z,7.03
2019-05-16T13:23:14.388Z,7.87
2019-05-16T13:25:36.942Z,7.60
2019-05-16T13:28:04.809Z,12.80
2019-05-16T13:30:32.453Z,7.93
2019-05-16T13:33:00.055Z,8.90
2019-05-16T13:35:27.698Z,8.30
2019-05-16T13:37:57.821Z,9.53
2019-05-16T13:40:24.762Z,9.20
2019-05-16T13:42:52.379Z,8.40
2019-05-16T13:45:19.959Z,8.27
2019-05-16T13:47:48.625Z,8.97
2019-05-16T13:50:17.522Z,8.00
2019-05-16T13:52:47.780Z,7.93
2019-05-16T13:55:16.696Z,6.90
2019-05-16T13:57:43.955Z,27.37
2019-05-16T14:00:12.241Z,7.07
2019-05-16T14:02:39.853Z,6.77
2019-05-16T14:05:09.747Z,7.17
2019-05-16T14:07:37.951Z,6.77
2019-05-16T14:10:06.415Z,8.07
2019-05-16T14:12:36.499Z,6.33
2019-05-16T14:15:04.371Z,6.70
2019-05-16T14:17:31.965Z,6.27
2019-05-16T14:19:59.553Z,6.33
2019-05-16T14:22:27.801Z,6.20
2019-05-16T14:24:57.993Z,5.90
2019-05-16T14:27:26.835Z,6.13
2019-05-16T14:29:57.590Z,6.60
2019-05-16T14:32:24.049Z,5.17
2019-05-16T14:34:52.001Z,6.03
2019-05-16T14:37:19.759Z,6.93
2019-05-16T14:39:48.756Z,7.07
2019-05-16T14:42:17.857Z,5.90
2019-05-16T14:45:04.655Z,6.50
2019-05-16T14:47:17.575Z,4.97
2019-05-16T14:49:44.605Z,5.27
2019-05-16T14:52:12.201Z,20.03
2019-05-16T14:54:39.843Z,7.87
2019-05-16T14:57:07.492Z,8.87
2019-05-16T14:59:36.474Z,6.20
2019-05-16T15:02:06.898Z,6.60
2019-05-16T15:04:33.716Z,7.00
2019-05-16T15:07:01.286Z,7.47
2019-05-16T15:09:28.884Z,7.87
2019-05-16T15:11:58.080Z,7.47
2019-05-16T15:14:28.068Z,7.93
2019-05-16T15:16:57.428Z,8.60
2019-05-16T15:19:24.775Z,8.90
2019-05-16T15:21:52.376Z,8.83
2019-05-16T15:24:20.153Z,7.77
2019-05-16T15:26:47.774Z,8.10
2019-05-16T15:29:16.467Z,8.67
2019-05-16T15:31:46.564Z,6.70
2019-05-16T15:34:13.693Z,5.97
2019-05-16T15:36:41.291Z,6.30
2019-05-16T15:39:08.891Z,5.47
2019-05-16T15:41:36.765Z,5.60
2019-05-16T15:44:04.484Z,9.13
2019-05-16T15:46:32.293Z,8.03
2019-05-16T15:49:00.460Z,10.40
2019-05-16T15:51:28.725Z,8.70
2019-05-16T15:53:57.257Z,8.73
2019-05-16T15:56:27.086Z,7.87
2019-05-16T15:58:54.718Z,7.23
2019-05-16T16:01:22.300Z,8.07
2019-05-16T16:03:50.100Z,8.57
2019-05-16T16:06:17.938Z,8.87
2019-05-16T16:08:46.980Z,9.87
2019-05-16T16:11:17.143Z,9.47
2019-05-16T16:13:44.503Z,9.83
2019-05-16T16:16:12.287Z,10.00
2019-05-16T16:18:39.846Z,10.97
2019-05-16T16:21:07.754Z,11.20
2019-05-16T16:23:37.319Z,9.30
2019-05-16T16:26:07.037Z,9.53
2019-05-16T16:28:34.391Z,8.67
2019-05-16T16:31:02.018Z,8.90
2019-05-16T16:33:30.197Z,10.23
2019-05-16T16:35:57.978Z,9.53
2019-05-16T16:38:25.567Z,9.80
2019-05-16T16:40:53.183Z,9.83
2019-05-16T16:43:23.666Z,8.80
2019-05-16T16:46:04.072Z,8.77
2019-05-16T16:48:19.647Z,7.03
2019-05-16T16:50:47.236Z,7.80
2019-05-16T16:53:17.458Z,7.23
2019-05-16T16:55:44.433Z,6.90
2019-05-16T16:58:12.036Z,8.43
2019-05-16T17:00:39.603Z,9.13
2019-05-16T17:03:10.341Z,10.47
2019-05-16T17:05:37.172Z,11.67
2019-05-16T17:08:07.381Z,12.23
2019-05-16T17:10:34.386Z,13.40
2019-05-16T17:13:02.020Z,11.23
2019-05-16T17:15:29.867Z,11.97
2019-05-16T17:18:00.686Z,16.50
2019-05-16T17:20:28.323Z,17.47
2019-05-16T17:22:57.228Z,27.33
2019-05-16T17:25:26.878Z,23.90
2019-05-16T17:27:54.395Z,21.17
2019-05-16T17:30:22.623Z,23.23
2019-05-16T17:32:50.284Z,26.00
2019-05-16T17:35:18.932Z,15.40
2019-05-16T17:37:46.890Z,14.77
2019-05-16T17:40:17.689Z,14.13
2019-05-16T17:42:44.406Z,14.33
2019-05-16T17:45:12.768Z,16.50
2019-05-16T17:47:40.406Z,19.00
2019-05-16T17:50:09.033Z,53.17
2019-05-16T17:52:37.033Z,18.47
2019-05-16T17:55:07.202Z,19.50
2019-05-16T17:57:36.950Z,16.73
2019-05-16T18:00:06.864Z,15.97
2019-05-16T18:02:37.345Z,13.57
2019-05-16T18:05:04.267Z,15.13
2019-05-16T18:07:31.959Z,15.63
2019-05-16T18:09:59.648Z,14.93
2019-05-16T18:12:27.668Z,15.27
2019-05-16T18:14:57.131Z,16.73
2019-05-16T18:17:26.740Z,15.73
2019-05-16T18:19:54.368Z,17.73
2019-05-16T18:22:22.102Z,16.70
2019-05-16T18:24:49.709Z,17.93
2019-05-16T18:27:17.368Z,20.63
2019-05-16T18:29:46.961Z,16.33
2019-05-16T18:32:16.877Z,17.90
2019-05-16T18:34:44.079Z,21.77
2019-05-16T18:37:11.717Z,17.77
2019-05-16T18:39:39.526Z,22.37
2019-05-16T18:42:07.166Z,20.70
2019-05-16T18:44:36.642Z,20.77
2019-05-16T18:47:08.417Z,19.23
2019-05-16T18:49:33.999Z,19.77
2019-05-16T18:52:01.619Z,20.40
2019-05-16T18:54:29.415Z,20.60
2019-05-16T18:56:57.862Z,21.53
2019-05-16T18:59:26.182Z,20.13
2019-05-16T19:01:54.082Z,22.03
2019-05-16T19:04:21.674Z,26.53
2019-05-16T19:06:49.377Z,22.27
2019-05-16T19:09:17.067Z,25.80
2019-05-16T19:11:45.613Z,24.17
2019-05-16T19:14:13.206Z,23.07
2019-05-16T19:16:41.026Z,25.90
2019-05-16T19:19:08.863Z,22.50
2019-05-16T19:21:38.885Z,24.70
2019-05-16T19:24:06.999Z,26.47
2019-05-16T19:26:37.359Z,26.13
2019-05-16T19:29:06.509Z,29.37
2019-05-16T19:31:38.911Z,30.30
2019-05-16T19:34:07.001Z,29.07
2019-05-16T19:36:36.176Z,30.37
2019-05-16T19:39:06.728Z,34.73
2019-05-16T19:41:38.638Z,34.73
2019-05-16T19:44:06.624Z,29.67
2019-05-16T19:46:33.709Z,33.13
2019-05-16T19:49:01.337Z,35.00
2019-05-16T19:51:32.363Z,33.30
2019-05-16T19:53:59.912Z,33.43
2019-05-16T19:56:27.794Z,35.70
2019-05-16T19:58:57.146Z,37.33
2019-05-16T20:01:27.051Z,35.00
2019-05-16T20:03:56.430Z,36.53
2019-05-16T20:06:27.488Z,37.27
2019-05-16T20:08:58.906Z,39.20
2019-05-16T20:11:27.634Z,38.20
2019-05-16T20:13:56.771Z,36.93
2019-05-16T20:16:27.136Z,39.67
2019-05-16T20:18:56.050Z,40.60
2019-05-16T20:21:23.617Z,37.07
2019-05-16T20:23:51.383Z,34.27
2019-05-16T20:26:19.184Z,33.53
2019-05-16T20:28:47.555Z,33.53
2019-05-16T20:31:17.095Z,41.00
2019-05-16T20:33:46.866Z,39.80
2019-05-16T20:36:17.505Z,41.47
2019-05-16T20:38:48.183Z,40.43
2019-05-16T20:41:17.030Z,45.57
2019-05-16T20:43:47.340Z,45.90
2019-05-16T20:46:17.142Z,41.77
2019-05-16T20:48:44.901Z,39.20
2019-05-16T20:51:12.735Z,41.20
2019-05-16T20:53:40.482Z,45.87
2019-05-16T20:56:08.284Z,38.87
2019-05-16T20:58:38.635Z,41.00
2019-05-16T21:01:07.005Z,52.60
2019-05-16T21:03:34.793Z,53.10
2019-05-16T21:06:08.540Z,49.97
2019-05-16T21:08:34.478Z,47.63
2019-05-16T21:11:02.168Z,52.50
2019-05-16T21:13:30.108Z,44.20
2019-05-16T21:15:57.821Z,42.00
2019-05-16T21:18:25.606Z,43.87
2019-05-16T21:20:53.346Z,45.37
2019-05-16T21:23:21.010Z,52.20
2019-05-16T21:25:48.924Z,56.37
2019-05-16T21:28:19.856Z,51.33
2019-05-16T21:30:48.958Z,55.03
2019-05-16T21:33:18.631Z,55.07
2019-05-16T21:35:46.978Z,51.07
2019-05-16T21:38:17.824Z,50.33
2019-05-16T21:40:47.873Z,53.30
2019-05-16T21:43:34.983Z,50.17
2019-05-16T21:46:02.575Z,46.37
2019-05-16T21:48:30.187Z,42.70
2019-05-16T21:50:57.778Z,47.33
2019-05-16T21:53:27.204Z,54.33
2019-05-16T21:55:56.395Z,50.33
2019-05-16T21:58:23.994Z,42.67
2019-05-16T22:00:56.717Z,39.53
2019-05-16T22:03:26.826Z,38.70
2019-05-16T22:05:54.087Z,37.80
2019-05-16T22:08:21.644Z,32.73
2019-05-16T22:10:49.408Z,34.67
2019-05-16T22:13:16.975Z,39.30
2019-05-16T22:15:46.420Z,46.27
2019-05-16T22:18:16.392Z,46.83
2019-05-16T22:20:43.640Z,48.10
2019-05-16T22:23:11.202Z,55.90
2019-05-16T22:25:38.865Z,51.33
2019-05-16T22:28:07.241Z,43.77
2019-05-16T22:30:36.596Z,46.77
2019-05-16T22:33:08.864Z,47.70
2019-05-16T22:35:33.866Z,47.83
2019-05-16T22:38:01.454Z,49.20
2019-05-16T22:40:29.050Z,55.33
2019-05-16T22:42:57.580Z,62.43
2019-05-16T22:45:27.054Z,55.47
2019-05-16T22:47:54.761Z,59.20
2019-05-16T22:50:22.376Z,52.73
2019-05-16T22:52:49.931Z,81.30
2019-05-16T22:55:17.825Z,193.33
2019-05-16T22:57:47.257Z,194.13
2019-05-16T23:00:20.145Z,273.67
2019-05-16T23:02:48.174Z,295.30
2019-05-16T23:05:16.797Z,99.80
2019-05-16T23:07:47.161Z,193.50
2019-05-16T23:10:16.488Z,148.73
2019-05-16T23:12:44.124Z,187.93
2019-05-16T23:15:14.204Z,256.53
2019-05-16T23:17:42.040Z,164.50
2019-05-16T23:20:12.002Z,91.03
2019-05-16T23:22:39.731Z,80.03
2019-05-16T23:25:07.429Z,119.60
2019-05-16T23:27:36.810Z,103.53
2019-05-16T23:30:07.392Z,103.77
2019-05-16T23:32:36.501Z,158.30
2019-05-16T23:35:06.643Z,129.73
2019-05-16T23:37:37.009Z,198.10
2019-05-16T23:40:06.358Z,259.30
2019-05-16T23:42:34.137Z,267.70
2019-05-16T23:45:01.968Z,206.77
2019-05-16T23:50:17.216Z,174.67
2019-05-16T23:52:47.572Z,221.30
2019-05-16T23:55:37.257Z,171.47
2019-05-16T23:58:07.283Z,145.60
